Time;durP1;ratioP1;P1;durP2;ratioP2;P2;SDS_P1;SDS_P2;PMS_P1;PMS_P2;Temp;Humidity;BMP_temperature;BMP_pressure;BME280_temperature;BME280_humidity;BME280_pressure;Samples;Min_cycle;Max_cycle;Signal;HPM_P1;HPM_P2
2023/08/21 00:01:57;;;;;;;11.23;2.35;;;20.10;99.90;;;21.00;66.70;101219.59;5033394;28;20041;-86
2023/08/21 00:04:24;;;;;;;5.60;2.55;;;20.20;99.90;;;21.00;66.86;101214.19;5015923;28;20497;-86
2023/08/21 00:06:51;;;;;;;6.50;2.53;;;20.20;99.90;;;20.99;66.65;101220.69;5014326;28;20128;-86
2023/08/21 00:09:19;;;;;;;7.38;2.95;;;20.10;99.90;;;21.00;66.86;101214.19;5019261;28;20041;-86
2023/08/21 00:11:47;;;;;;;9.05;2.92;;;20.20;99.90;;;21.00;66.79;101214.19;5010705;28;20037;-86
2023/08/21 00:14:15;;;;;;;9.60;2.70;;;20.20;99.90;;;21.01;66.62;101215.81;5016510;28;20140;-85
2023/08/21 00:16:42;;;;;;;9.15;3.10;;;20.20;99.90;;;21.00;66.66;101218.78;5014086;28;20037;-85
2023/08/21 00:19:09;;;;;;;8.43;2.70;;;20.20;99.90;;;20.95;66.77;101206.03;5031912;28;20045;-86
2023/08/21 00:21:36;;;;;;;7.70;2.90;;;20.20;99.90;;;20.92;67.00;101211.97;5017464;28;20041;-85
2023/08/21 00:24:04;;;;;;;9.50;2.30;;;20.10;99.90;;;20.91;66.93;101210.34;5017336;28;20132;-86
2023/08/21 00:26:32;;;;;;;8.15;2.20;;;20.10;99.90;;;20.94;66.86;101211.72;5010227;28;20521;-86
2023/08/21 00:29:00;;;;;;;6.72;2.70;;;20.10;99.90;;;20.94;66.88;101209.81;5013878;28;20037;-86
2023/08/21 00:31:27;;;;;;;11.38;2.30;;;20.10;99.90;;;20.95;66.63;101208.72;5036192;28;20132;-86
2023/08/21 00:33:55;;;;;;;8.85;2.65;;;20.10;99.90;;;20.93;66.40;101204.63;5029837;28;20464;-86
2023/08/21 00:36:22;;;;;;;7.45;2.70;;;20.10;99.90;;;20.89;66.65;101207.06;5015507;28;20052;-86
2023/08/21 00:38:50;;;;;;;6.80;2.60;;;20.10;99.90;;;20.89;66.83;101203.56;5027537;28;20066;-86
2023/08/21 00:41:17;;;;;;;4.45;2.15;;;20.10;99.90;;;20.89;66.67;101200.84;5030207;28;20033;-86
2023/08/21 00:43:44;;;;;;;7.35;2.72;;;20.10;99.90;;;20.87;66.48;101203.78;5018548;28;20049;-86
2023/08/21 00:46:13;;;;;;;7.30;2.45;;;20.00;99.90;;;20.87;66.61;101198.38;5009555;28;20076;-86
2023/08/21 00:48:41;;;;;;;6.40;2.33;;;20.00;99.90;;;20.83;66.82;101195.34;5012308;28;20457;-86
2023/08/21 00:51:08;;;;;;;7.35;2.75;;;20.00;99.90;;;20.83;66.87;101200.78;5014798;28;20569;-86
2023/08/21 00:53:36;;;;;;;6.22;2.67;;;20.00;99.90;;;20.80;66.76;101198.59;5013449;28;20228;-86
2023/08/21 00:56:03;;;;;;;8.30;2.60;;;20.00;99.90;;;20.79;66.78;101201.59;5018385;28;21072;-86
2023/08/21 00:58:31;;;;;;;8.38;2.53;;;19.90;99.90;;;20.78;66.69;101202.66;5014773;28;20040;-86
2023/08/21 01:00:58;;;;;;;5.97;2.33;;;19.90;99.90;;;20.77;66.65;101193.69;5012844;28;20122;-86
2023/08/21 01:03:27;;;;;;;6.88;2.47;;;19.90;99.90;;;20.72;66.68;101207.22;5016594;28;20055;-86
2023/08/21 01:05:56;;;;;;;5.75;2.38;;;19.90;99.90;;;20.73;67.00;101214.28;5011345;28;20044;-85
2023/08/21 01:08:31;;;;;;;8.52;2.33;;;19.90;99.90;;;20.71;66.75;101211.00;5023856;28;20447;-85
2023/08/21 01:11:07;;;;;;;6.90;2.55;;;19.90;99.90;;;20.70;66.54;101211.28;5006272;28;20077;-85
2023/08/21 01:13:49;;;;;;;8.55;2.50;;;19.80;99.90;;;20.69;66.78;101206.91;5009913;28;20061;-85
2023/08/21 01:16:18;;;;;;;6.72;2.22;;;19.80;99.90;;;20.68;66.68;101210.72;5029872;28;20045;-85
2023/08/21 01:18:47;;;;;;;4.95;2.33;;;19.80;99.90;;;20.63;66.54;101208.78;5027954;28;20049;-85
2023/08/21 01:21:16;;;;;;;7.15;2.50;;;19.80;99.90;;;20.60;66.79;101198.47;5013467;28;20041;-85
2023/08/21 01:23:45;;;;;;;5.00;2.40;;;19.70;99.90;;;20.61;66.68;101205.53;5003382;28;20505;-85
2023/08/21 01:26:12;;;;;;;5.35;2.03;;;19.70;99.90;;;20.60;66.84;101211.22;5013487;28;20069;-85
2023/08/21 01:28:40;;;;;;;5.05;2.20;;;19.70;99.90;;;20.57;66.63;101210.63;5020381;28;20069;-85
2023/08/21 01:31:15;;;;;;;6.70;2.22;;;19.70;99.90;;;20.56;67.07;101211.72;5011521;28;20071;-85
2023/08/21 01:33:50;;;;;;;9.43;2.67;;;19.70;99.90;;;20.55;66.54;101204.69;5026956;28;20053;-85
2023/08/21 01:36:18;;;;;;;4.78;2.03;;;19.70;99.90;;;20.50;66.74;101211.97;5028001;28;20048;-85
2023/08/21 01:38:49;;;;;;;5.32;2.30;;;19.60;99.90;;;20.49;67.02;101210.28;5014578;28;20037;-85
2023/08/21 01:41:16;;;;;;;5.40;1.85;;;19.60;99.90;;;20.46;67.26;101213.50;5031804;28;20069;-85
2023/08/21 01:43:44;;;;;;;8.35;2.38;;;19.60;99.90;;;20.45;67.15;101207.28;5028812;28;20049;-86
2023/08/21 01:46:11;;;;;;;10.55;2.33;;;19.60;99.90;;;20.42;66.82;101210.50;5028587;28;20104;-86
2023/08/21 01:48:39;;;;;;;5.85;2.20;;;19.60;99.90;;;20.41;67.08;101214.28;5025433;28;20137;-85
2023/08/21 01:51:06;;;;;;;7.43;2.50;;;19.50;99.90;;;20.40;67.05;101206.38;5032147;28;20085;-86
2023/08/21 01:53:33;;;;;;;7.45;2.22;;;19.50;99.90;;;20.36;66.97;101197.97;5014083;28;20132;-85
2023/08/21 01:56:03;;;;;;;6.40;2.33;;;19.50;99.90;;;20.36;67.11;101203.41;5013810;28;20112;-85
2023/08/21 01:58:33;;;;;;;8.65;2.00;;;19.40;99.90;;;20.36;66.69;101199.88;5028343;28;20064;-85
2023/08/21 02:01:00;;;;;;;5.40;2.00;;;19.50;99.90;;;20.33;67.09;101196.59;5014364;28;20447;-85
2023/08/21 02:03:28;;;;;;;14.50;2.45;;;19.40;99.90;;;20.29;66.79;101190.06;5036904;28;20088;-86
2023/08/21 02:05:58;;;;;;;7.13;2.35;;;19.40;99.90;;;20.27;67.07;101194.13;4992174;28;20041;-85
2023/08/21 02:08:32;;;;;;;5.60;2.15;;;19.40;99.90;;;20.28;67.14;101182.19;5029551;28;20485;-85
2023/08/21 02:11:00;;;;;;;10.45;2.70;;;19.30;99.90;;;20.26;66.94;101189.78;5019959;28;20042;-85
2023/08/21 02:13:28;;;;;;;7.78;2.00;;;19.30;99.90;;;20.23;66.88;101180.25;5012992;28;20120;-85
2023/08/21 02:15:56;;;;;;;6.07;1.80;;;19.30;99.90;;;20.22;66.79;101180.53;5010587;28;20133;-85
2023/08/21 02:18:23;;;;;;;5.30;2.17;;;19.30;99.90;;;20.21;66.82;101184.31;5015037;28;20044;-85
2023/08/21 02:20:51;;;;;;;7.30;1.92;;;19.30;99.90;;;20.22;66.98;101185.94;5015333;28;20049;-85
2023/08/21 02:23:18;;;;;;;12.07;2.50;;;19.30;99.90;;;20.22;66.98;101194.06;5021626;28;20136;-85
2023/08/21 02:25:45;;;;;;;7.40;2.35;;;19.30;99.90;;;20.18;66.62;101191.06;5025848;28;20418;-85
2023/08/21 02:28:13;;;;;;;6.63;2.10;;;19.30;99.90;;;20.17;67.08;101194.84;5018912;28;20049;-85
2023/08/21 02:30:43;;;;;;;6.88;2.28;;;19.20;99.90;;;20.15;67.49;101188.84;5008791;28;20041;-85
2023/08/21 02:33:10;;;;;;;8.85;2.50;;;19.20;99.90;;;20.16;67.26;101189.69;5000793;28;20072;-85
2023/08/21 02:35:39;;;;;;;9.75;2.67;;;19.20;99.90;;;20.14;67.17;101194.53;5014287;28;20045;-85
2023/08/21 02:38:07;;;;;;;6.47;2.10;;;19.20;99.90;;;20.12;67.24;101193.97;5015411;28;20045;-85
2023/08/21 02:40:36;;;;;;;5.30;1.80;;;19.20;99.90;;;20.12;67.10;101189.38;5013328;28;20049;-85
2023/08/21 02:43:04;;;;;;;9.23;2.75;;;19.20;99.90;;;20.10;67.20;101198.81;5017585;28;20045;-85
2023/08/21 02:45:31;;;;;;;13.55;2.83;;;19.20;99.90;;;20.06;67.20;101204.75;5012620;28;20069;-85
2023/08/21 02:48:00;;;;;;;9.45;2.50;;;19.20;99.90;;;20.04;67.33;101209.59;5029338;28;20073;-85
2023/08/21 02:50:27;;;;;;;5.05;1.95;;;19.20;99.90;;;20.03;67.55;101216.09;5035490;28;20033;-85
2023/08/21 02:52:56;;;;;;;8.57;2.25;;;19.20;99.90;;;19.98;67.68;101210.63;5006503;28;20077;-85
2023/08/21 02:55:23;;;;;;;11.65;2.35;;;19.10;99.90;;;19.98;67.29;101213.34;5026399;28;20505;-85
2023/08/21 02:57:50;;;;;;;5.22;2.05;;;19.10;99.90;;;19.96;67.47;101203.81;5012269;28;20049;-85
2023/08/21 03:00:18;;;;;;;6.35;2.20;;;19.10;99.90;;;19.95;67.60;101208.44;5012094;28;20061;-85
2023/08/21 03:02:45;;;;;;;7.55;2.38;;;19.10;99.90;;;19.94;67.15;101209.50;5021737;28;20042;-85
2023/08/21 03:05:14;;;;;;;6.00;2.20;;;19.00;99.90;;;19.94;67.19;101204.09;5030553;28;20141;-85
2023/08/21 03:07:41;;;;;;;7.03;2.33;;;19.10;99.90;;;19.95;67.11;101205.72;5017066;28;20081;-85
2023/08/21 03:10:10;;;;;;;5.72;2.20;;;19.10;99.90;;;19.93;67.40;101204.34;5016602;28;20084;-85
2023/08/21 03:12:37;;;;;;;7.40;2.33;;;19.10;99.90;;;19.94;67.40;101206.78;5010901;28;20045;-85
2023/08/21 03:15:06;;;;;;;7.95;2.40;;;19.00;99.90;;;19.89;67.37;101198.63;5018572;28;20037;-85
2023/08/21 03:17:33;;;;;;;10.23;2.10;;;19.00;99.90;;;19.89;68.12;101205.94;5032384;28;20366;-85
2023/08/21 03:20:00;;;;;;;8.27;2.30;;;19.00;99.90;;;19.85;68.00;101194.78;5014479;28;20406;-85
2023/08/21 03:22:31;;;;;;;6.82;2.22;;;19.00;99.90;;;19.83;68.08;101196.13;5015649;28;20049;-85
2023/08/21 03:24:58;;;;;;;6.15;2.38;;;19.00;99.90;;;19.82;67.96;101199.91;5018563;28;20346;-85
2023/08/21 03:27:26;;;;;;;6.20;2.33;;;18.90;99.90;;;19.81;67.92;101199.06;5017366;28;20475;-85
2023/08/21 03:29:53;;;;;;;6.90;2.08;;;18.90;99.90;;;19.83;67.96;101193.44;5019797;28;20041;-85
2023/08/21 03:32:21;;;;;;;7.47;2.33;;;19.00;99.90;;;19.79;67.92;101198.53;5025799;28;20041;-85
2023/08/21 03:34:48;;;;;;;7.65;2.25;;;18.90;99.90;;;19.78;67.97;101202.31;5023563;28;20049;-85
2023/08/21 03:37:16;;;;;;;7.57;2.40;;;18.90;99.90;;;19.78;67.74;101197.72;5023269;28;20045;-85
2023/08/21 03:39:45;;;;;;;4.57;2.00;;;18.90;99.90;;;19.75;67.86;101191.97;5016985;28;20077;-85
2023/08/21 03:42:12;;;;;;;7.60;2.30;;;18.90;99.90;;;19.75;67.84;101187.38;5021331;28;20044;-85
2023/08/21 03:44:41;;;;;;;7.38;2.10;;;18.90;99.90;;;19.75;67.71;101192.78;5026176;28;20885;-86
2023/08/21 03:47:09;;;;;;;7.55;2.45;;;18.90;99.90;;;19.72;67.66;101187.09;5030915;28;20490;-85
2023/08/21 03:49:48;;;;;;;4.53;2.00;;;18.90;99.90;;;19.71;67.66;101197.06;5031974;28;20152;-85
2023/08/21 03:52:15;;;;;;;5.80;2.37;;;18.90;99.90;;;19.70;68.13;101186.50;5016066;28;20038;-85
2023/08/21 03:54:45;;;;;;;7.03;2.25;;;18.80;99.90;;;19.70;67.78;101190.03;5030461;28;20087;-85
2023/08/21 03:57:12;;;;;;;5.80;2.08;;;18.90;99.90;;;19.71;68.02;101193.56;5033187;28;20095;-85
2023/08/21 03:59:39;;;;;;;8.25;2.60;;;18.90;99.90;;;19.69;68.44;101191.09;5031279;28;20046;-85
2023/08/21 04:02:07;;;;;;;7.25;2.88;;;18.90;99.90;;;19.73;68.62;101191.44;5030645;28;20041;-85
2023/08/21 04:04:34;;;;;;;9.75;2.40;;;18.90;99.90;;;19.70;68.65;101194.63;5021233;28;20057;-85
2023/08/21 04:07:01;;;;;;;8.30;2.58;;;18.90;99.90;;;19.68;68.82;101196.78;5019620;28;20033;-85
2023/08/21 04:09:29;;;;;;;6.57;2.72;;;18.90;99.90;;;19.66;68.37;101197.03;5036590;28;20127;-85
2023/08/21 04:11:57;;;;;;;8.05;2.45;;;18.80;99.90;;;19.66;68.54;101201.63;5011712;28;20075;-85
2023/08/21 04:14:25;;;;;;;9.63;2.70;;;18.80;99.90;;;19.64;68.59;101196.47;5014476;28;20566;-86
2023/08/21 04:16:52;;;;;;;5.28;2.60;;;18.80;99.90;;;19.61;68.49;101196.97;5031066;28;20124;-86
2023/08/21 04:19:21;;;;;;;5.75;2.40;;;18.80;99.90;;;19.59;68.65;101199.09;5015217;28;20049;-85
2023/08/21 04:21:48;;;;;;;6.65;2.22;;;18.70;99.90;;;19.59;68.70;101198.28;5019905;28;20106;-84
2023/08/21 04:24:15;;;;;;;7.38;2.55;;;18.80;99.90;;;19.56;69.05;101200.41;4998322;28;20046;-84
2023/08/21 04:26:42;;;;;;;7.63;2.50;;;18.70;99.90;;;19.60;69.00;101210.75;5021888;28;20051;-84
2023/08/21 04:29:11;;;;;;;7.50;2.40;;;18.80;99.90;;;19.59;68.74;101206.38;5024376;28;20068;-84
2023/08/21 04:31:38;;;;;;;6.28;2.10;;;18.70;99.90;;;19.58;68.92;101202.88;5021158;28;20041;-84
2023/08/21 04:34:06;;;;;;;7.90;2.25;;;18.80;99.90;;;19.56;69.31;101205.00;5024355;28;20072;-84
2023/08/21 04:36:34;;;;;;;8.50;2.38;;;18.80;99.90;;;19.56;69.40;101203.09;5018244;28;20061;-85
2023/08/21 04:39:01;;;;;;;10.23;2.47;;;18.80;99.90;;;19.58;69.80;101212.88;5021417;28;20060;-84
2023/08/21 04:41:29;;;;;;;8.90;2.63;;;18.70;99.90;;;19.58;69.80;101210.16;5016373;28;20045;-85
2023/08/21 04:43:56;;;;;;;6.72;2.70;;;18.80;99.90;;;19.56;69.63;101211.22;5032071;28;20065;-86
2023/08/21 04:46:26;;;;;;;6.38;2.65;;;18.70;99.90;;;19.56;69.70;101203.09;5013038;28;20163;-86
2023/08/21 04:48:53;;;;;;;11.88;2.90;;;18.70;99.90;;;19.54;69.84;101212.56;5010565;28;20045;-84
2023/08/21 04:51:21;;;;;;;5.13;2.47;;;18.80;99.90;;;19.56;69.76;101213.94;5032228;28;20048;-85
2023/08/21 04:53:48;;;;;;;4.38;2.08;;;18.80;99.90;;;19.55;70.07;101220.41;5017265;28;20052;-84
2023/08/21 04:56:19;;;;;;;8.30;2.90;;;18.80;99.90;;;19.56;70.28;101219.34;5017948;28;20037;-82
2023/08/21 04:58:46;;;;;;;6.20;2.22;;;18.80;99.90;;;19.60;70.18;101208.06;5035669;28;20057;-83
2023/08/21 05:01:13;;;;;;;5.55;2.13;;;18.80;99.90;;;19.60;69.92;101214.28;5018976;28;20076;-83
2023/08/21 05:03:47;;;;;;;6.13;2.72;;;18.80;99.90;;;19.60;70.40;101211.56;5029874;28;20065;-83
2023/08/21 05:06:15;;;;;;;7.25;2.67;;;18.90;99.90;;;19.62;70.26;101214.00;5024936;28;20049;-83
2023/08/21 05:08:42;;;;;;;7.43;2.13;;;18.90;99.90;;;19.64;70.45;101211.88;5012202;28;20041;-83
2023/08/21 05:11:11;;;;;;;5.90;2.47;;;18.90;99.90;;;19.66;70.47;101215.16;5015139;28;20778;-83
2023/08/21 05:13:40;;;;;;;5.72;2.63;;;18.90;99.90;;;19.69;70.43;101214.66;5015989;28;20044;-83
2023/08/21 05:16:10;;;;;;;6.27;2.60;;;19.00;99.90;;;19.76;70.39;101226.09;5031869;23;20513;-87
2023/08/21 05:18:39;;;;;;;5.80;2.38;;;19.00;99.90;;;19.79;70.55;101236.41;5007614;28;20311;-86
2023/08/21 05:21:09;;;;;;;6.22;2.65;;;19.10;99.90;;;19.82;70.76;101222.38;5002909;28;20042;-86
2023/08/21 05:23:37;;;;;;;7.72;2.95;;;19.10;99.90;;;19.83;70.74;101221.31;5028233;28;20426;-86
2023/08/21 05:26:08;;;;;;;7.18;2.70;;;19.10;99.90;;;19.83;70.55;101224.00;5009062;28;20123;-86
2023/08/21 05:28:35;;;;;;;7.95;2.80;;;19.20;99.90;;;19.83;70.91;101220.50;5011167;28;20084;-87
2023/08/21 05:31:02;;;;;;;6.80;2.58;;;19.20;99.90;;;19.87;71.17;101227.03;5025098;28;20046;-87
2023/08/21 05:33:41;;;;;;;8.45;3.50;;;19.20;99.90;;;19.88;70.99;101218.66;5009924;28;20092;-87
2023/08/21 05:36:10;;;;;;;8.52;3.45;;;19.20;99.90;;;19.88;71.01;101218.66;5028261;28;20049;-87
2023/08/21 05:38:37;;;;;;;12.82;2.83;;;19.30;99.90;;;19.92;71.35;101218.97;5028213;28;20069;-87
2023/08/21 05:41:04;;;;;;;9.73;3.42;;;19.30;99.90;;;19.97;71.68;101227.16;5007963;28;20038;-87
2023/08/21 05:43:32;;;;;;;6.65;3.10;;;19.40;99.90;;;20.05;70.86;101218.53;5008811;28;20042;-86
2023/08/21 05:45:59;;;;;;;9.45;3.50;;;19.50;99.90;;;20.05;71.04;101222.06;5027788;28;20045;-87
2023/08/21 05:48:27;;;;;;;12.00;3.70;;;19.60;99.90;;;20.12;71.11;101223.78;5025534;28;20050;-87
2023/08/21 05:50:55;;;;;;;8.63;3.97;;;19.60;99.90;;;20.17;71.23;101223.81;5027145;28;20046;-88
2023/08/21 05:53:24;;;;;;;8.48;3.80;;;19.70;99.90;;;20.25;70.92;101220.63;5011623;28;20061;-87
2023/08/21 05:55:53;;;;;;;;;;;19.80;99.90;;;20.27;70.68;101226.63;5027596;28;20046;-89
2023/08/21 05:58:21;;;;;;;12.68;3.92;;;19.90;99.90;;;20.27;70.83;101221.19;5011545;28;19921;-87
2023/08/21 06:00:48;;;;;;;9.52;4.35;;;19.90;99.90;;;20.26;70.66;101220.38;5027336;28;20034;-89
2023/08/21 06:03:16;;;;;;;12.93;4.50;;;19.90;99.90;;;20.25;70.68;101212.50;4997868;28;20054;-88
2023/08/21 06:06:01;;;;;;;16.35;4.22;;;19.90;99.90;;;20.22;70.77;101216.56;5002953;28;20108;-88
2023/08/21 06:08:30;;;;;;;9.35;4.47;;;19.80;99.90;;;20.22;70.44;101221.16;5000582;28;20053;-87
2023/08/21 06:10:58;;;;;;;11.65;5.03;;;19.80;99.90;;;20.22;70.60;101219.25;5024131;28;20049;-87
2023/08/21 06:13:26;;;;;;;9.63;4.30;;;19.80;99.90;;;20.28;70.50;101226.34;5012612;28;20034;-87
2023/08/21 06:15:55;;;;;;;15.60;4.68;;;19.90;99.90;;;20.34;71.00;101216.38;5018714;28;20044;-87
2023/08/21 06:18:23;;;;;;;10.13;4.20;;;20.00;99.90;;;20.43;71.17;101225.66;5027130;28;20044;-87
2023/08/21 06:20:53;;;;;;;12.45;4.85;;;20.10;99.90;;;20.48;70.87;101219.50;5010943;28;20050;-87
2023/08/21 06:23:21;;;;;;;11.85;4.82;;;20.10;99.90;;;20.54;70.84;101222.00;5006902;28;20047;-87
2023/08/21 06:25:50;;;;;;;15.10;5.05;;;20.20;99.90;;;20.56;70.38;101224.47;5018618;28;20057;-87
2023/08/21 06:28:19;;;;;;;18.15;4.97;;;20.20;99.90;;;20.49;70.45;101227.38;5027246;28;20092;-87
2023/08/21 06:30:47;;;;;;;10.25;4.95;;;20.20;99.90;;;20.51;69.69;101233.38;5026799;28;20137;-87
2023/08/21 06:33:14;;;;;;;11.10;5.18;;;20.20;99.90;;;20.58;69.63;101231.25;5014138;28;20037;-86
2023/08/21 06:35:41;;;;;;;11.40;4.90;;;20.40;99.90;;;20.75;70.44;101235.72;5017700;28;20046;-87
2023/08/21 06:38:09;;;;;;;16.95;4.70;;;20.50;99.90;;;20.88;70.21;101231.72;5016425;28;20050;-87
2023/08/21 06:40:37;;;;;;;16.27;5.03;;;20.70;99.90;;;20.95;70.17;101219.59;5033672;28;20050;-87
2023/08/21 06:43:06;;;;;;;11.88;4.43;;;20.80;99.90;;;21.05;70.32;101224.25;5017761;28;20048;-87
2023/08/21 06:45:35;;;;;;;10.80;4.28;;;20.90;99.90;;;21.16;69.05;101228.66;5017978;28;20524;-87
2023/08/21 06:48:04;;;;;;;12.02;4.00;;;21.10;99.90;;;21.22;68.14;101221.34;5021659;28;20042;-86
2023/08/21 06:50:32;;;;;;;10.38;3.88;;;21.20;99.90;;;21.22;67.71;101224.06;5004896;28;20050;-86
2023/08/21 06:52:59;;;;;;;11.98;4.30;;;21.20;99.90;;;21.31;68.18;101222.50;5020477;28;20073;-86
2023/08/21 06:55:26;;;;;;;9.13;3.67;;;21.30;99.90;;;21.38;66.44;101225.00;5034942;28;20092;-87
2023/08/21 06:57:53;;;;;;;11.20;3.80;;;21.30;99.90;;;21.47;66.74;101239.66;5018859;28;20069;-87
2023/08/21 07:00:22;;;;;;;9.20;3.92;;;21.40;99.90;;;21.55;66.45;101231.03;5033467;28;20044;-87
2023/08/21 07:02:49;;;;;;;9.90;3.28;;;21.50;99.90;;;21.66;67.12;101237.31;5018630;28;20069;-87
2023/08/21 07:05:17;;;;;;;11.75;3.92;;;21.70;99.90;;;21.66;65.43;101227.25;5033813;28;20050;-87
2023/08/21 07:07:44;;;;;;;8.07;3.35;;;21.70;99.90;;;21.58;65.01;101242.19;5018458;28;20042;-87
2023/08/21 07:10:12;;;;;;;8.68;3.67;;;21.70;99.90;;;21.58;65.98;101235.94;5032664;28;20140;-87
2023/08/21 07:12:39;;;;;;;7.88;3.42;;;21.60;99.90;;;21.56;66.16;101236.19;5018638;28;20042;-87
2023/08/21 07:15:08;;;;;;;9.02;3.05;;;21.60;99.90;;;21.54;66.13;101241.06;5017314;28;20045;-87
2023/08/21 07:17:37;;;;;;;9.15;2.97;;;21.50;99.90;;;21.55;66.05;101241.88;5018657;28;20073;-87
2023/08/21 07:20:05;;;;;;;7.82;3.47;;;21.50;99.90;;;21.53;65.80;101244.88;5033137;28;20149;-87
2023/08/21 07:22:32;;;;;;;10.48;3.47;;;21.40;99.90;;;21.52;66.29;101240.53;5018187;28;20084;-87
2023/08/21 07:25:03;;;;;;;12.15;3.80;;;21.40;99.90;;;21.45;65.71;101237.22;5033474;28;20041;-87
2023/08/21 07:27:31;;;;;;;6.85;3.00;;;21.40;99.90;;;21.43;65.41;101244.84;5028367;28;20046;-87
2023/08/21 07:29:58;;;;;;;12.55;3.42;;;21.30;99.90;;;21.42;65.63;101245.88;5009947;28;20045;-87
2023/08/21 07:32:26;;;;;;;9.68;3.30;;;21.30;99.90;;;21.47;65.49;101251.38;5017075;28;20120;-87
2023/08/21 07:34:55;;;;;;;9.95;3.05;;;21.40;99.90;;;21.51;65.89;101252.44;5017209;28;20054;-87
2023/08/21 07:37:22;;;;;;;9.45;2.83;;;21.40;99.90;;;21.53;65.26;101250.31;5018365;28;20096;-87
2023/08/21 07:39:50;;;;;;;12.48;3.13;;;21.50;99.90;;;21.57;64.29;101245.16;5016908;28;20096;-87
2023/08/21 07:42:17;;;;;;;10.48;3.00;;;21.50;99.90;;;21.57;64.40;101256.03;5016906;28;20038;-87
2023/08/21 07:44:46;;;;;;;11.88;3.15;;;21.50;99.90;;;21.58;64.10;101242.19;5014867;28;20521;-87
2023/08/21 07:47:13;;;;;;;9.90;3.10;;;21.50;99.90;;;21.65;63.66;101241.91;5012646;28;20153;-87
2023/08/21 07:49:40;;;;;;;8.05;2.90;;;21.70;99.30;;;21.74;64.39;101244.94;5014984;28;20040;-87
2023/08/21 07:52:09;;;;;;;8.38;2.90;;;21.70;99.60;;;21.73;63.25;101244.13;5030544;28;20475;-87
2023/08/21 07:54:37;;;;;;;9.23;2.70;;;21.80;98.50;;;21.76;63.49;101245.47;5030469;28;20050;-87
2023/08/21 07:57:05;;;;;;;10.25;2.67;;;21.80;98.70;;;21.71;62.76;101245.47;5013693;28;20482;-87
2023/08/21 07:59:33;;;;;;;8.82;2.63;;;21.70;98.20;;;21.78;65.61;101240.63;5029809;28;20100;-87
2023/08/21 08:02:00;;;;;;;13.50;2.92;;;21.80;99.90;;;21.82;67.36;101247.16;5013682;28;20092;-87
2023/08/21 08:04:28;;;;;;;12.88;3.97;;;21.90;99.90;;;21.82;65.63;101247.97;5029586;28;20068;-87
2023/08/21 08:06:55;;;;;;;14.68;3.78;;;21.80;99.90;;;21.85;66.42;101252.84;5014611;28;20037;-87
2023/08/21 08:09:24;;;;;;;9.50;2.88;;;21.90;99.90;;;21.97;66.11;101254.53;5014308;28;20042;-87
2023/08/21 08:11:51;;;;;;;10.65;3.60;;;22.00;99.90;;;22.03;63.81;101253.44;5030106;28;20049;-87
2023/08/21 08:14:18;;;;;;;11.05;3.78;;;22.10;98.70;;;22.14;63.53;101248.88;5029947;28;20088;-87
2023/08/21 08:16:46;;;;;;;12.63;3.60;;;22.20;98.70;;;22.25;63.13;101247.78;5028709;28;20050;-87
2023/08/21 08:19:13;;;;;;;9.30;3.08;;;22.40;98.00;;;22.32;64.86;101251.06;5014349;28;20061;-87
2023/08/21 08:21:40;;;;;;;9.48;2.70;;;22.40;99.50;;;22.42;62.96;101251.09;5029760;28;20084;-87
2023/08/21 08:24:08;;;;;;;13.57;3.20;;;22.50;97.50;;;22.46;59.57;101252.19;5013151;28;20052;-87
2023/08/21 08:26:36;;;;;;;7.30;2.53;;;22.60;94.60;;;22.48;61.01;101250.00;5013230;28;20181;-87
2023/08/21 08:29:04;;;;;;;9.68;3.28;;;22.60;95.10;;;22.59;61.01;101248.94;5012821;28;20050;-87
2023/08/21 08:31:32;;;;;;;10.48;3.10;;;22.70;95.00;;;22.68;61.55;101248.34;5014458;28;20045;-87
2023/08/21 08:33:59;;;;;;;12.07;2.97;;;22.80;95.80;;;22.76;61.31;101250.53;5013141;28;20551;-88
2023/08/21 08:36:27;;;;;;;9.68;2.97;;;23.00;95.70;;;22.79;60.87;101250.81;5029513;28;20064;-88
2023/08/21 08:38:54;;;;;;;7.03;2.90;;;23.00;95.00;;;22.79;59.79;101244.53;5029622;28;20112;-86
2023/08/21 08:41:29;;;;;;;10.70;2.78;;;23.00;93.60;;;22.82;59.32;101244.00;5029777;28;20422;-87
2023/08/21 08:44:00;;;;;;;15.07;2.75;;;23.00;93.00;;;22.86;59.02;101253.25;5014667;28;20053;-86
2023/08/21 08:46:29;;;;;;;11.13;3.22;;;23.00;92.80;;;22.88;57.97;101240.16;5014336;28;20041;-86
2023/08/21 08:48:58;;;;;;;9.23;2.47;;;23.10;91.40;;;22.86;57.70;101250.53;5012228;28;20038;-86
2023/08/21 08:51:26;;;;;;;5.85;2.42;;;23.00;91.30;;;22.85;58.64;101248.91;4996846;28;20045;-86
2023/08/21 08:53:53;;;;;;;11.45;2.80;;;23.00;91.90;;;23.01;62.62;101252.44;5012834;28;20082;-86
2023/08/21 08:56:20;;;;;;;8.32;2.80;;;23.20;96.20;;;23.09;60.47;101255.41;5012118;28;20048;-86
2023/08/21 08:58:48;;;;;;;8.25;2.10;;;23.30;94.00;;;23.10;59.36;101254.31;5013111;28;20076;-86
2023/08/21 09:01:17;;;;;;;11.13;2.72;;;23.30;92.90;;;23.11;58.23;101252.41;5012729;28;20045;-86
2023/08/21 09:03:45;;;;;;;6.88;2.67;;;23.30;91.60;;;23.13;57.49;101250.22;5014161;28;20070;-86
2023/08/21 09:06:13;;;;;;;8.43;2.67;;;23.40;90.70;;;23.21;60.43;101251.56;5000562;28;20077;-86
2023/08/21 09:08:43;;;;;;;9.68;2.75;;;23.40;93.20;;;23.21;56.56;101257.00;4998825;28;20557;-86
2023/08/21 09:11:10;;;;;;;12.90;2.50;;;23.50;89.70;;;23.17;58.09;101262.19;5013733;28;20077;-86
2023/08/21 09:13:39;;;;;;;10.95;2.90;;;23.40;91.10;;;23.26;57.69;101255.09;5013799;28;20121;-86
2023/08/21 09:16:07;;;;;;;7.63;2.28;;;23.50;90.70;;;23.30;59.11;101255.34;5013537;28;20038;-86
2023/08/21 09:18:36;;;;;;;10.05;3.15;;;23.60;91.90;;;23.38;58.45;101252.06;5008862;28;20092;-86
2023/08/21 09:21:04;;;;;;;10.55;2.67;;;23.70;91.40;;;23.36;57.50;101248.78;5005809;28;20415;-86
2023/08/21 09:23:31;;;;;;;11.77;3.03;;;23.70;90.50;;;23.30;56.27;101249.91;5008756;28;20503;-86
2023/08/21 09:25:58;;;;;;;9.70;2.38;;;23.60;88.70;;;23.35;58.71;101247.16;5008941;28;20074;-86
2023/08/21 09:28:27;;;;;;;11.80;2.70;;;23.60;91.70;;;23.41;61.03;101240.59;5008912;28;20514;-86
2023/08/21 09:30:55;;;;;;;8.05;2.53;;;23.70;93.70;;;23.48;58.80;101232.97;4993622;28;20046;-86
2023/08/21 09:33:24;;;;;;;9.15;2.92;;;23.70;91.70;;;23.47;57.81;101230.50;5008847;28;20066;-86
2023/08/21 09:35:55;;;;;;;8.40;2.80;;;23.80;90.60;;;23.53;60.32;101232.94;5009165;28;20092;-87
2023/08/21 09:38:23;;;;;;;8.98;2.85;;;23.80;92.80;;;23.55;58.35;101236.19;5000301;28;20069;-88
2023/08/21 09:40:55;;;;;;;7.63;3.30;;;23.80;90.90;;;23.64;57.27;101239.19;5012846;28;20511;-86
2023/08/21 09:43:24;;;;;;;9.75;3.63;;;23.90;90.00;;;23.63;55.74;101245.69;5013644;28;20049;-86
2023/08/21 09:45:55;;;;;;;13.10;3.38;;;23.90;88.10;;;23.61;56.45;101232.34;5012431;28;20040;-85
2023/08/21 09:48:23;;;;;;;11.70;3.03;;;23.90;88.90;;;23.69;58.43;101238.34;5012045;28;20096;-86
2023/08/21 09:50:53;;;;;;;10.15;3.17;;;23.90;90.90;;;23.82;58.97;101229.56;5011840;28;20046;-86
2023/08/21 09:53:22;;;;;;;11.23;3.30;;;24.10;91.40;;;23.87;58.74;101233.06;5012361;28;20092;-86
2023/08/21 09:55:53;;;;;;;13.68;3.88;;;24.20;91.60;;;23.89;56.92;101235.50;5007148;28;20064;-86
2023/08/21 09:58:21;;;;;;;10.68;3.28;;;24.20;89.30;;;23.88;56.27;101236.59;5011539;28;20088;-86
2023/08/21 10:00:50;;;;;;;8.45;3.80;;;24.20;88.10;;;23.83;55.59;101220.28;5027627;28;20100;-89
2023/08/21 10:03:22;;;;;;;9.63;3.30;;;24.10;87.60;;;23.82;55.97;101235.81;5012717;28;20121;-89
2023/08/21 10:05:49;;;;;;;10.90;4.07;;;24.10;88.00;;;23.83;56.80;101232.00;5012797;28;20037;-88
2023/08/21 10:08:24;;;;;;;10.82;3.63;;;24.10;88.70;;;23.87;56.84;101224.91;5011173;28;20056;-88
2023/08/21 10:10:52;;;;;;;11.15;3.25;;;24.20;88.70;;;23.84;57.93;101217.28;5011150;28;20057;-88
2023/08/21 10:13:19;;;;;;;11.32;3.92;;;24.10;90.20;;;23.89;56.20;101216.44;4994476;28;20137;-85
2023/08/21 10:15:47;;;;;;;8.02;3.70;;;24.20;88.50;;;23.99;59.20;101226.47;5026114;28;20061;-86